Time;durP1;ratioP1;P1;durP2;ratioP2;P2;SDS_P1;SDS_P2;PMS_P1;PMS_P2;Temp;Humidity;BMP_temperature;BMP_pressure;BME280_temperature;BME280_humidity;BME280_pressure;Samples;Min_cycle;Max_cycle;Signal;HPM_P1;HPM_P2
2021/12/31 00:00:00;;;;;;;17.90;3.73;;;;;;;;;;5038816;28;20048;-72
2021/12/31 00:02:26;;;;;;;17.63;4.13;;;;;;;;;;5039787;28;20045;-72
2021/12/31 00:04:52;;;;;;;18.47;3.70;;;;;;;;;;5043286;28;20124;-72
2021/12/31 00:07:18;;;;;;;22.27;4.43;;;;;;;;;;5038562;28;20068;-72
2021/12/31 00:09:45;;;;;;;20.67;4.17;;;;;;;;;;5036103;28;20048;-72
2021/12/31 00:12:11;;;;;;;21.43;4.10;;;;;;;;;;5041978;28;20148;-72
2021/12/31 00:14:38;;;;;;;13.67;3.93;;;;;;;;;;5025889;28;20120;-72
2021/12/31 00:17:04;;;;;;;22.20;5.17;;;;;;;;;;5041604;28;20105;-72
2021/12/31 00:19:33;;;;;;;13.03;4.10;;;;;;;;;;5037689;28;20403;-72
2021/12/31 00:22:06;;;;;;;16.63;3.87;;;;;;;;;;5041305;28;20044;-72
2021/12/31 00:24:32;;;;;;;11.80;4.53;;;;;;;;;;5037837;28;20056;-71
2021/12/31 00:26:58;;;;;;;14.60;3.90;;;;;;;;;;5042952;28;20037;-72
2021/12/31 00:29:24;;;;;;;18.37;5.37;;;;;;;;;;5037114;28;20055;-72
2021/12/31 00:31:50;;;;;;;16.70;4.07;;;;;;;;;;5039057;28;20079;-71
2021/12/31 00:34:16;;;;;;;16.90;5.10;;;;;;;;;;5036588;28;20495;-71
2021/12/31 00:36:45;;;;;;;19.93;4.40;;;;;;;;;;5020636;28;20083;-72
2021/12/31 00:39:11;;;;;;;8.97;3.60;;;;;;;;;;5035003;28;20048;-72
2021/12/31 00:41:37;;;;;;;12.50;4.00;;;;;;;;;;5056773;28;20407;-71
2021/12/31 00:44:04;;;;;;;16.73;5.10;;;;;;;;;;5015809;28;20042;-71
2021/12/31 00:46:33;;;;;;;19.27;6.07;;;;;;;;;;5025868;28;20064;-72
2021/12/31 00:49:02;;;;;;;13.97;5.20;;;;;;;;;;5017044;28;20097;-72
2021/12/31 00:51:28;;;;;;;17.43;4.83;;;;;;;;;;5018341;28;20061;-71
2021/12/31 00:53:54;;;;;;;17.17;4.60;;;;;;;;;;5030139;28;20046;-71
2021/12/31 00:56:20;;;;;;;26.80;4.80;;;;;;;;;;5030054;28;20116;-71
2021/12/31 00:58:47;;;;;;;18.90;4.53;;;;;;;;;;5028546;28;20049;-72
2021/12/31 01:01:18;;;;;;;15.43;4.33;;;;;;;;;;5030277;28;22021;-71
2021/12/31 01:03:44;;;;;;;18.40;4.90;;;;;;;;;;5029485;28;20103;-72
2021/12/31 01:06:10;;;;;;;14.47;3.83;;;;;;;;;;5028418;28;20041;-71
2021/12/31 01:08:36;;;;;;;12.80;4.03;;;;;;;;;;5029442;28;20506;-71
2021/12/31 01:11:02;;;;;;;11.63;3.80;;;;;;;;;;5030214;28;20052;-71
2021/12/31 01:13:35;;;;;;;19.83;4.80;;;;;;;;;;5029674;28;20045;-72
2021/12/31 01:16:03;;;;;;;14.77;3.97;;;;;;;;;;5029377;28;20095;-71
2021/12/31 01:21:15;;;;;;;18.67;4.10;;;;;;;;;;5029414;28;20050;-71
2021/12/31 01:23:41;;;;;;;14.30;4.10;;;;;;;;;;5029861;28;20108;-71
2021/12/31 01:26:07;;;;;;;16.77;4.63;;;;;;;;;;5028649;28;20042;-72
2021/12/31 01:28:33;;;;;;;13.47;4.33;;;;;;;;;;5028464;28;20083;-71
2021/12/31 01:30:59;;;;;;;15.83;4.30;;;;;;;;;;5029772;28;20055;-72
2021/12/31 01:33:25;;;;;;;13.80;4.27;;;;;;;;;;5029076;28;20047;-71
2021/12/31 01:35:51;;;;;;;14.63;4.20;;;;;;;;;;5028620;28;20073;-72
2021/12/31 01:38:17;;;;;;;17.40;5.13;;;;;;;;;;5012633;28;20089;-71
2021/12/31 01:40:43;;;;;;;18.87;4.80;;;;;;;;;;5028847;28;20372;-71
2021/12/31 01:43:13;;;;;;;17.03;4.63;;;;;;;;;;5029293;28;20515;-71
2021/12/31 01:45:55;;;;;;;11.63;5.47;;;;;;;;;;5029287;28;20132;-72
2021/12/31 01:49:04;;;;;;;12.83;4.23;;;;;;;;;;5029208;28;20056;-72
2021/12/31 01:51:10;;;;;;;16.90;4.53;;;;;;;;;;5025326;28;20049;-71
2021/12/31 01:53:36;;;;;;;13.57;5.00;;;;;;;;;;5012941;28;20041;-71
2021/12/31 01:56:02;;;;;;;13.07;4.57;;;;;;;;;;5028367;28;20046;-71
2021/12/31 01:58:29;;;;;;;17.33;4.50;;;;;;;;;;5029808;28;20076;-71
2021/12/31 02:00:55;;;;;;;12.73;5.27;;;;;;;;;;5027846;28;20045;-71
2021/12/31 02:03:22;;;;;;;13.87;5.70;;;;;;;;;;5028821;28;20056;-72
2021/12/31 02:05:48;;;;;;;14.80;6.23;;;;;;;;;;5028379;28;20053;-71
2021/12/31 02:08:16;;;;;;;14.00;5.90;;;;;;;;;;5028867;28;20107;-72
2021/12/31 02:10:42;;;;;;;15.43;5.60;;;;;;;;;;5028948;28;20506;-72
2021/12/31 02:13:09;;;;;;;14.37;5.57;;;;;;;;;;5029244;28;20081;-72
2021/12/31 02:15:35;;;;;;;15.77;6.20;;;;;;;;;;5028497;28;20107;-71
2021/12/31 02:18:03;;;;;;;17.63;6.40;;;;;;;;;;5027883;28;20419;-72
2021/12/31 02:20:43;;;;;;;13.90;6.37;;;;;;;;;;5012127;28;20500;-72
2021/12/31 02:23:20;;;;;;;15.43;6.90;;;;;;;;;;5027859;28;20049;-71
2021/12/31 02:25:46;;;;;;;12.23;6.13;;;;;;;;;;5029722;28;20128;-72
2021/12/31 02:28:12;;;;;;;14.73;7.20;;;;;;;;;;5028745;28;20191;-71
2021/12/31 02:30:38;;;;;;;17.03;6.20;;;;;;;;;;5028713;28;20054;-72
2021/12/31 02:33:04;;;;;;;13.23;6.50;;;;;;;;;;5028143;28;20045;-71
2021/12/31 02:35:31;;;;;;;18.60;7.23;;;;;;;;;;5043763;28;20060;-72
2021/12/31 02:37:58;;;;;;;12.27;6.87;;;;;;;;;;5011664;28;20045;-72
2021/12/31 02:40:25;;;;;;;9.83;6.20;;;;;;;;;;5028022;28;20455;-71
2021/12/31 02:42:51;;;;;;;16.87;7.53;;;;;;;;;;5028165;28;20082;-72
2021/12/31 02:45:17;;;;;;;10.67;7.07;;;;;;;;;;5028229;28;20045;-72
2021/12/31 02:47:46;;;;;;;18.07;7.87;;;;;;;;;;5027644;28;20053;-72
2021/12/31 02:50:13;;;;;;;13.33;7.30;;;;;;;;;;5028089;28;20458;-71
2021/12/31 02:52:40;;;;;;;12.67;7.93;;;;;;;;;;5029188;28;20076;-72
2021/12/31 02:55:06;;;;;;;12.83;7.57;;;;;;;;;;5027593;28;20048;-71
2021/12/31 02:57:33;;;;;;;13.70;8.07;;;;;;;;;;5026696;28;20050;-72
2021/12/31 02:59:59;;;;;;;14.53;7.63;;;;;;;;;;5027862;28;20045;-72
2021/12/31 03:02:25;;;;;;;12.17;7.93;;;;;;;;;;5027614;28;20540;-72
2021/12/31 03:04:52;;;;;;;13.27;7.93;;;;;;;;;;5026957;28;20053;-72
2021/12/31 03:07:19;;;;;;;15.47;8.50;;;;;;;;;;5028010;28;20136;-72
2021/12/31 03:09:47;;;;;;;14.60;8.07;;;;;;;;;;5027190;28;20049;-72
2021/12/31 03:12:14;;;;;;;14.50;7.70;;;;;;;;;;5027677;28;20073;-72
2021/12/31 03:14:42;;;;;;;12.97;7.93;;;;;;;;;;5028058;28;20392;-72
2021/12/31 03:17:09;;;;;;;13.63;8.50;;;;;;;;;;5027489;28;20065;-72
2021/12/31 03:19:35;;;;;;;10.50;6.73;;;;;;;;;;5024152;28;20132;-72
2021/12/31 03:22:01;;;;;;;11.87;6.97;;;;;;;;;;5024038;28;20049;-72
2021/12/31 03:24:27;;;;;;;11.43;7.23;;;;;;;;;;5027442;28;20038;-72
2021/12/31 03:26:53;;;;;;;12.50;7.10;;;;;;;;;;5027383;28;20111;-72
2021/12/31 03:29:19;;;;;;;13.20;8.07;;;;;;;;;;5027067;28;20045;-72
2021/12/31 03:31:45;;;;;;;10.33;7.73;;;;;;;;;;5026983;28;20045;-72
2021/12/31 03:34:13;;;;;;;11.13;7.93;;;;;;;;;;5027211;28;20098;-72
2021/12/31 03:36:40;;;;;;;7.80;7.00;;;;;;;;;;5028878;28;20119;-72
2021/12/31 03:39:06;;;;;;;13.03;8.03;;;;;;;;;;5026959;28;20038;-72
2021/12/31 03:41:32;;;;;;;10.83;7.23;;;;;;;;;;5028779;28;20077;-72
2021/12/31 03:43:58;;;;;;;14.63;7.50;;;;;;;;;;5027799;28;20399;-72
2021/12/31 03:46:24;;;;;;;12.27;7.13;;;;;;;;;;5026521;28;20061;-72
2021/12/31 03:48:50;;;;;;;12.00;7.40;;;;;;;;;;5027426;28;20049;-72
2021/12/31 03:51:16;;;;;;;11.73;7.93;;;;;;;;;;5026987;28;20041;-72
2021/12/31 03:53:42;;;;;;;10.60;7.50;;;;;;;;;;5026941;28;20088;-72
2021/12/31 03:56:08;;;;;;;16.27;8.33;;;;;;;;;;5027224;28;20050;-72
2021/12/31 03:58:34;;;;;;;11.00;6.70;;;;;;;;;;5010357;28;20144;-72
2021/12/31 04:01:00;;;;;;;14.37;6.80;;;;;;;;;;5027150;28;20124;-72
2021/12/31 04:03:26;;;;;;;14.17;6.70;;;;;;;;;;5006520;28;20067;-72
2021/12/31 04:05:53;;;;;;;12.87;6.17;;;;;;;;;;5010848;28;20050;-73
2021/12/31 04:08:19;;;;;;;11.83;6.33;;;;;;;;;;5026668;28;20055;-72
2021/12/31 04:10:46;;;;;;;12.53;6.07;;;;;;;;;;5010583;28;20564;-72
2021/12/31 04:13:12;;;;;;;11.53;6.87;;;;;;;;;;5028357;28;20475;-72
2021/12/31 04:15:38;;;;;;;11.10;5.40;;;;;;;;;;5027217;28;20057;-72
2021/12/31 04:18:04;;;;;;;10.37;5.00;;;;;;;;;;5026987;28;20102;-72
2021/12/31 04:20:39;;;;;;;10.07;5.47;;;;;;;;;;5026263;28;20050;-72
2021/12/31 04:23:11;;;;;;;8.30;4.43;;;;;;;;;;5027246;28;20072;-72
2021/12/31 04:25:37;;;;;;;8.50;4.70;;;;;;;;;;5027112;28;20256;-72
2021/12/31 04:28:04;;;;;;;11.80;4.33;;;;;;;;;;5026863;28;20307;-72
2021/12/31 04:30:30;;;;;;;8.63;4.87;;;;;;;;;;5027992;28;20053;-71
2021/12/31 04:32:56;;;;;;;10.97;3.83;;;;;;;;;;5026526;28;20079;-72
2021/12/31 04:35:23;;;;;;;8.03;3.57;;;;;;;;;;5026356;28;20096;-72
2021/12/31 04:37:49;;;;;;;7.93;3.67;;;;;;;;;;5026880;28;20606;-72
2021/12/31 04:40:15;;;;;;;10.10;4.03;;;;;;;;;;5027453;28;20481;-72
2021/12/31 04:42:46;;;;;;;6.23;3.10;;;;;;;;;;5030605;28;20041;-73
2021/12/31 04:45:13;;;;;;;7.90;3.40;;;;;;;;;;5030518;28;20072;-72
2021/12/31 04:47:39;;;;;;;8.87;2.93;;;;;;;;;;5030031;28;20543;-73
2021/12/31 04:50:06;;;;;;;7.03;2.97;;;;;;;;;;5029955;28;20042;-72
2021/12/31 04:52:32;;;;;;;9.23;3.10;;;;;;;;;;5030359;28;20136;-72
2021/12/31 04:54:58;;;;;;;7.83;2.70;;;;;;;;;;5030413;28;20446;-72
2021/12/31 04:57:26;;;;;;;6.47;2.20;;;;;;;;;;5029745;28;20140;-73
2021/12/31 04:59:52;;;;;;;6.43;2.73;;;;;;;;;;5028828;28;20065;-73
2021/12/31 05:02:18;;;;;;;7.30;3.33;;;;;;;;;;5022670;28;20495;-73
2021/12/31 05:04:44;;;;;;;6.60;2.67;;;;;;;;;;5030990;28;20045;-73
2021/12/31 05:07:10;;;;;;;4.97;2.33;;;;;;;;;;5030350;28;20041;-73
2021/12/31 05:09:37;;;;;;;7.03;2.60;;;;;;;;;;5029971;28;20048;-72
2021/12/31 05:12:04;;;;;;;8.90;2.77;;;;;;;;;;5030529;28;20056;-73
2021/12/31 05:14:30;;;;;;;10.83;2.37;;;;;;;;;;5030044;28;20457;-72
2021/12/31 05:16:58;;;;;;;8.63;2.40;;;;;;;;;;5015241;28;20057;-72
2021/12/31 05:19:24;;;;;;;5.13;2.07;;;;;;;;;;4999377;28;20103;-72
2021/12/31 05:21:50;;;;;;;6.13;2.17;;;;;;;;;;5029451;28;20049;-72
2021/12/31 05:24:16;;;;;;;7.93;2.20;;;;;;;;;;5029801;28;20053;-72
2021/12/31 05:26:42;;;;;;;7.07;2.37;;;;;;;;;;5029207;28;20041;-73
2021/12/31 05:29:08;;;;;;;9.13;2.43;;;;;;;;;;5031258;28;20088;-72
2021/12/31 05:31:34;;;;;;;6.63;2.00;;;;;;;;;;5045865;28;20045;-73
2021/12/31 05:34:00;;;;;;;5.23;2.07;;;;;;;;;;5046058;28;20049;-72
2021/12/31 05:36:26;;;;;;;9.23;3.03;;;;;;;;;;5045018;28;20053;-72
2021/12/31 05:38:53;;;;;;;6.63;2.23;;;;;;;;;;5029218;28;20105;-72
2021/12/31 05:41:19;;;;;;;7.17;2.17;;;;;;;;;;5029610;28;20049;-73
2021/12/31 05:43:45;;;;;;;5.37;2.03;;;;;;;;;;5028769;28;20041;-72
2021/12/31 05:46:11;;;;;;;5.93;2.03;;;;;;;;;;5028620;28;20053;-72
2021/12/31 05:48:37;;;;;;;9.40;2.23;;;;;;;;;;5030623;28;20053;-72
2021/12/31 05:51:03;;;;;;;4.73;1.87;;;;;;;;;;5028782;28;20435;-72
2021/12/31 05:53:30;;;;;;;6.97;2.00;;;;;;;;;;5028837;28;20075;-72
2021/12/31 05:55:56;;;;;;;6.17;1.60;;;;;;;;;;5028712;28;20086;-72
2021/12/31 05:58:22;;;;;;;4.63;1.70;;;;;;;;;;5028657;28;20049;-72
2021/12/31 06:00:48;;;;;;;4.80;1.77;;;;;;;;;;5028758;28;20045;-72
2021/12/31 06:03:14;;;;;;;4.77;1.77;;;;;;;;;;5028887;28;20045;-72
2021/12/31 06:05:40;;;;;;;7.57;2.03;;;;;;;;;;5029069;28;20071;-72
2021/12/31 06:08:06;;;;;;;6.10;1.83;;;;;;;;;;5028334;28;20041;-72
2021/12/31 06:10:32;;;;;;;4.27;1.80;;;;;;;;;;5028757;28;20045;-72
2021/12/31 06:13:00;;;;;;;6.73;1.90;;;;;;;;;;5028603;28;20056;-72
2021/12/31 06:15:27;;;;;;;8.30;1.90;;;;;;;;;;5028171;28;20176;-72
2021/12/31 06:17:53;;;;;;;7.20;1.60;;;;;;;;;;5044466;28;20467;-72
2021/12/31 06:20:20;;;;;;;3.70;1.70;;;;;;;;;;5029489;28;20099;-72
2021/12/31 06:22:46;;;;;;;6.37;2.00;;;;;;;;;;5028220;28;20088;-72
2021/12/31 06:25:12;;;;;;;5.47;1.70;;;;;;;;;;5028601;28;20053;-72
2021/12/31 06:27:38;;;;;;;5.47;1.80;;;;;;;;;;5028223;28;20160;-72
2021/12/31 06:30:04;;;;;;;5.50;1.97;;;;;;;;;;5026726;28;20068;-72
2021/12/31 06:32:31;;;;;;;5.73;2.23;;;;;;;;;;5028884;28;20496;-72
2021/12/31 06:34:57;;;;;;;3.77;1.60;;;;;;;;;;5045220;28;20127;-72
2021/12/31 06:37:23;;;;;;;3.80;1.97;;;;;;;;;;5028439;28;20126;-72
2021/12/31 06:39:49;;;;;;;4.83;1.87;;;;;;;;;;5028420;28;20060;-72
2021/12/31 06:42:15;;;;;;;5.37;2.43;;;;;;;;;;5026649;28;20077;-72
2021/12/31 06:44:41;;;;;;;7.43;2.20;;;;;;;;;;5027075;28;20053;-72
2021/12/31 06:47:07;;;;;;;6.10;1.83;;;;;;;;;;5027864;28;20088;-71
2021/12/31 06:49:33;;;;;;;5.83;1.90;;;;;;;;;;5011827;28;20054;-72
2021/12/31 06:51:59;;;;;;;7.07;2.07;;;;;;;;;;5028276;28;20447;-71
2021/12/31 06:54:26;;;;;;;5.13;2.07;;;;;;;;;;5027135;28;20128;-71
2021/12/31 06:56:53;;;;;;;7.47;2.27;;;;;;;;;;5027948;28;20096;-72
2021/12/31 06:59:19;;;;;;;5.20;1.97;;;;;;;;;;5027871;28;20133;-72
2021/12/31 07:01:45;;;;;;;5.67;1.80;;;;;;;;;;5011150;28;20124;-72
2021/12/31 07:04:11;;;;;;;4.00;2.10;;;;;;;;;;5026551;28;20132;-72
2021/12/31 07:06:37;;;;;;;4.50;2.07;;;;;;;;;;5021922;28;20143;-72
2021/12/31 07:09:03;;;;;;;4.10;1.90;;;;;;;;;;5021473;28;20508;-72
2021/12/31 07:11:29;;;;;;;5.17;2.00;;;;;;;;;;5025659;28;20068;-72
2021/12/31 07:13:56;;;;;;;4.73;1.47;;;;;;;;;;5008310;28;20045;-72
2021/12/31 07:16:22;;;;;;;4.77;2.10;;;;;;;;;;5017480;28;20169;-72
2021/12/31 07:18:48;;;;;;;7.33;1.77;;;;;;;;;;5031093;28;20128;-71
2021/12/31 07:21:14;;;;;;;9.43;2.27;;;;;;;;;;5034885;28;20061;-72
2021/12/31 07:23:40;;;;;;;8.10;2.57;;;;;;;;;;5027591;28;20589;-71
2021/12/31 07:26:07;;;;;;;4.97;1.87;;;;;;;;;;5027583;28;20132;-72
2021/12/31 07:28:33;;;;;;;9.80;2.80;;;;;;;;;;5027612;28;20049;-71
2021/12/31 07:31:00;;;;;;;6.93;2.13;;;;;;;;;;5026795;28;20521;-71
2021/12/31 07:33:26;;;;;;;5.93;2.37;;;;;;;;;;5027255;28;20053;-71
2021/12/31 07:35:53;;;;;;;4.10;2.00;;;;;;;;;;5025521;28;20550;-72
2021/12/31 07:38:32;;;;;;;4.70;1.80;;;;;;;;;;5036016;28;20052;-72
2021/12/31 07:40:58;;;;;;;7.40;2.20;;;;;;;;;;5020731;28;20479;-72
2021/12/31 07:43:24;;;;;;;7.93;2.30;;;;;;;;;;5020189;28;20045;-70
2021/12/31 07:45:52;;;;;;;3.67;1.80;;;;;;;;;;5021167;28;20095;-70
2021/12/31 07:48:18;;;;;;;5.60;1.93;;;;;;;;;;5034059;28;20127;-71
2021/12/31 07:50:44;;;;;;;5.43;1.80;;;;;;;;;;5040110;28;20087;-71
2021/12/31 07:53:10;;;;;;;5.77;2.57;;;;;;;;;;5025203;28;20050;-70
2021/12/31 07:55:37;;;;;;;5.53;2.43;;;;;;;;;;5023373;28;20116;-71
2021/12/31 07:58:03;;;;;;;4.77;2.07;;;;;;;;;;5026652;28;20145;-71
2021/12/31 08:00:29;;;;;;;7.03;1.70;;;;;;;;;;5021615;28;20545;-71
2021/12/31 08:02:56;;;;;;;5.53;1.57;;;;;;;;;;5021114;28;20041;-71
2021/12/31 08:05:23;;;;;;;5.67;2.13;;;;;;;;;;5021095;28;20084;-71
2021/12/31 08:07:49;;;;;;;5.23;1.40;;;;;;;;;;5023622;28;20049;-70
2021/12/31 08:10:15;;;;;;;4.47;2.47;;;;;;;;;;5024351;28;20060;-71
2021/12/31 08:12:41;;;;;;;5.03;2.17;;;;;;;;;;5028239;28;20561;-71
2021/12/31 08:15:07;;;;;;;5.17;2.00;;;;;;;;;;5027273;28;20037;-71
2021/12/31 08:17:33;;;;;;;4.27;1.60;;;;;;;;;;5026640;28;20066;-71
2021/12/31 08:19:59;;;;;;;4.47;2.00;;;;;;;;;;5033485;28;20045;-71
2021/12/31 08:22:25;;;;;;;4.07;2.20;;;;;;;;;;5028626;28;20385;-70
2021/12/31 08:24:52;;;;;;;5.30;2.23;;;;;;;;;;5029129;28;20504;-71
2021/12/31 08:27:18;;;;;;;5.27;2.50;;;;;;;;;;5028398;28;20455;-71
2021/12/31 08:29:44;;;;;;;7.93;2.83;;;;;;;;;;5029257;28;20462;-70
2021/12/31 08:32:10;;;;;;;5.57;2.10;;;;;;;;;;5029072;28;20135;-71
2021/12/31 08:34:36;;;;;;;5.33;2.53;;;;;;;;;;5026789;28;20049;-71
2021/12/31 08:37:03;;;;;;;6.13;2.93;;;;;;;;;;5027735;28;20158;-71
2021/12/31 08:39:29;;;;;;;7.23;2.70;;;;;;;;;;5032266;28;20037;-70
2021/12/31 08:41:55;;;;;;;7.93;4.00;;;;;;;;;;5035123;28;20136;-70
2021/12/31 08:44:21;;;;;;;8.63;3.83;;;;;;;;;;5041819;28;20049;-70
2021/12/31 08:46:47;;;;;;;9.10;3.87;;;;;;;;;;5035724;28;20368;-70
2021/12/31 08:49:14;;;;;;;7.40;3.50;;;;;;;;;;5041746;28;20152;-71
2021/12/31 08:51:40;;;;;;;10.70;4.10;;;;;;;;;;5037268;28;20381;-70
2021/12/31 08:54:06;;;;;;;6.27;3.90;;;;;;;;;;5037059;28;20047;-70
2021/12/31 08:56:32;;;;;;;10.67;4.30;;;;;;;;;;5024987;28;20057;-70
2021/12/31 08:58:58;;;;;;;10.07;4.63;;;;;;;;;;5036081;28;20076;-70
2021/12/31 09:01:24;;;;;;;10.00;5.10;;;;;;;;;;5034452;28;20442;-71
2021/12/31 09:03:50;;;;;;;15.53;5.27;;;;;;;;;;5038323;28;20049;-70
2021/12/31 09:06:18;;;;;;;11.30;5.20;;;;;;;;;;5033294;28;20499;-70
2021/12/31 09:08:44;;;;;;;7.77;3.27;;;;;;;;;;5042425;28;20490;-71
2021/12/31 09:11:11;;;;;;;7.60;3.80;;;;;;;;;;5034948;28;20041;-70
2021/12/31 09:13:37;;;;;;;9.53;4.63;;;;;;;;;;5043664;28;20115;-71
2021/12/31 09:16:03;;;;;;;9.20;3.33;;;;;;;;;;5037205;28;20415;-70
2021/12/31 09:18:29;;;;;;;7.93;3.13;;;;;;;;;;5030003;28;20049;-70
2021/12/31 09:20:56;;;;;;;5.77;2.90;;;;;;;;;;5039238;28;20049;-70
2021/12/31 09:23:22;;;;;;;5.97;2.50;;;;;;;;;;5039769;28;20103;-70
2021/12/31 09:25:49;;;;;;;5.53;2.60;;;;;;;;;;5036746;28;20407;-70
2021/12/31 09:28:16;;;;;;;10.77;2.23;;;;;;;;;;5030991;28;20419;-70
2021/12/31 09:30:42;;;;;;;7.27;2.80;;;;;;;;;;5035941;28;20045;-70
2021/12/31 09:33:08;;;;;;;5.20;2.20;;;;;;;;;;5034104;28;20072;-70
2021/12/31 09:35:34;;;;;;;7.07;1.80;;;;;;;;;;5029676;28;20045;-70
2021/12/31 09:38:08;;;;;;;8.43;2.10;;;;;;;;;;5028371;28;20042;-70
2021/12/31 09:40:34;;;;;;;6.17;2.50;;;;;;;;;;5031650;28;20187;-70
2021/12/31 09:43:00;;;;;;;6.97;2.57;;;;;;;;;;5030779;28;20060;-70
2021/12/31 09:45:27;;;;;;;5.87;2.20;;;;;;;;;;5026829;28;20088;-69
2021/12/31 09:47:58;;;;;;;7.10;2.33;;;;;;;;;;5028941;28;20518;-70
2021/12/31 09:50:24;;;;;;;7.20;2.97;;;;;;;;;;5030091;28;20099;-70
2021/12/31 09:52:52;;;;;;;8.27;3.63;;;;;;;;;;5029871;28;20041;-69
2021/12/31 09:55:37;;;;;;;4.67;2.27;;;;;;;;;;5028745;28;20053;-70
2021/12/31 09:58:03;;;;;;;11.67;3.03;;;;;;;;;;5028952;28;20613;-70
2021/12/31 10:00:29;;;;;;;6.47;2.83;;;;;;;;;;5012810;28;20059;-70
2021/12/31 10:03:13;;;;;;;8.37;2.83;;;;;;;;;;5030704;28;20053;-70
2021/12/31 10:05:59;;;;;;;8.20;3.87;;;;;;;;;;5030677;28;20414;-70
2021/12/31 10:08:26;;;;;;;9.00;4.00;;;;;;;;;;5033720;28;20052;-70
2021/12/31 10:11:11;;;;;;;8.00;4.03;;;;;;;;;;5028575;28;20045;-70
2021/12/31 10:13:57;;;;;;;7.73;3.73;;;;;;;;;;5025738;28;20053;-70
2021/12/31 10:16:23;;;;;;;10.57;3.33;;;;;;;;;;5021955;28;20058;-70
2021/12/31 10:18:50;;;;;;;5.17;2.93;;;;;;;;;;5026210;28;20056;-70
2021/12/31 10:21:19;;;;;;;8.37;3.57;;;;;;;;;;5011308;28;20599;-70
2021/12/31 10:23:45;;;;;;;8.27;3.93;;;;;;;;;;5030714;28;20053;-70
2021/12/31 10:26:12;;;;;;;7.50;3.60;;;;;;;;;;5032371;28;20044;-70
2021/12/31 10:29:11;;;;;;;7.23;3.67;;;;;;;;;;5029488;28;20059;-70
2021/12/31 10:31:42;;;;;;;8.53;3.63;;;;;;;;;;5008741;28;20081;-70
2021/12/31 10:34:24;;;;;;;8.43;4.00;;;;;;;;;;5027066;28;20045;-69
2021/12/31 10:36:50;;;;;;;10.33;4.57;;;;;;;;;;5029013;28;20476;-69
2021/12/31 10:39:26;;;;;;;8.20;4.30;;;;;;;;;;5027505;28;20125;-69
2021/12/31 10:42:01;;;;;;;11.73;5.40;;;;;;;;;;5029022;28;20084;-70
2021/12/31 10:44:42;;;;;;;12.93;5.53;;;;;;;;;;5028514;28;20053;-70
2021/12/31 10:47:10;;;;;;;8.43;5.07;;;;;;;;;;5028554;28;20557;-70
2021/12/31 10:49:56;;;;;;;7.77;4.60;;;;;;;;;;5026105;28;20112;-70
2021/12/31 10:52:29;;;;;;;11.07;6.20;;;;;;;;;;5028274;28;20052;-69
2021/12/31 10:55:03;;;;;;;10.40;4.90;;;;;;;;;;5028122;28;20543;-70
2021/12/31 10:57:37;;;;;;;14.73;6.20;;;;;;;;;;5024765;28;20058;-70
2021/12/31 11:00:07;;;;;;;10.40;5.70;;;;;;;;;;5029140;28;20141;-69
2021/12/31 11:02:34;;;;;;;12.87;6.00;;;;;;;;;;5030836;28;20533;-70
2021/12/31 11:05:00;;;;;;;12.20;6.27;;;;;;;;;;5028386;28;20447;-71
2021/12/31 11:07:28;;;;;;;9.73;5.70;;;;;;;;;;5027562;28;20099;-70
2021/12/31 11:09:54;;;;;;;13.27;6.30;;;;;;;;;;5029632;28;20095;-70
2021/12/31 11:12:20;;;;;;;11.87;5.83;;;;;;;;;;5025472;28;20079;-70
2021/12/31 11:14:48;;;;;;;12.57;5.20;;;;;;;;;;5038443;28;20515;-70
2021/12/31 11:17:14;;;;;;;9.97;5.40;;;;;;;;;;5044504;28;20053;-70
2021/12/31 11:19:43;;;;;;;10.23;4.87;;;;;;;;;;5026443;28;20053;-71
2021/12/31 11:22:10;;;;;;;10.97;5.13;;;;;;;;;;5009345;28;20357;-70
2021/12/31 11:24:38;;;;;;;10.57;5.57;;;;;;;;;;5042297;28;20090;-70
2021/12/31 11:27:23;;;;;;;11.40;5.40;;;;;;;;;;5040780;28;20056;-70
2021/12/31 11:29:49;;;;;;;11.30;6.67;;;;;;;;;;5034581;28;20056;-71
2021/12/31 11:32:15;;;;;;;10.83;6.43;;;;;;;;;;5013806;28;20045;-71
2021/12/31 11:34:41;;;;;;;14.83;6.63;;;;;;;;;;5036529;28;20042;-71
2021/12/31 11:37:07;;;;;;;15.07;6.93;;;;;;;;;;5026090;28;20060;-71
2021/12/31 11:39:36;;;;;;;18.53;7.67;;;;;;;;;;5010205;28;20053;-71
2021/12/31 11:42:06;;;;;;;10.33;6.20;;;;;;;;;;5026515;28;20132;-71
2021/12/31 11:44:33;;;;;;;13.33;6.40;;;;;;;;;;5034941;28;20061;-71
2021/12/31 11:47:10;;;;;;;14.47;6.67;;;;;;;;;;5027828;28;20041;-71
2021/12/31 11:49:36;;;;;;;10.87;5.37;;;;;;;;;;5029449;28;20045;-71
2021/12/31 11:52:06;;;;;;;12.10;5.67;;;;;;;;;;5030983;28;20045;-71
2021/12/31 11:54:33;;;;;;;7.87;4.17;;;;;;;;;;5035163;28;20060;-71
2021/12/31 11:57:00;;;;;;;9.47;4.37;;;;;;;;;;5047836;28;20407;-71
2021/12/31 11:59:27;;;;;;;12.47;4.10;;;;;;;;;;5030013;28;20049;-71
2021/12/31 12:01:55;;;;;;;12.13;5.07;;;;;;;;;;5046696;28;20591;-71
2021/12/31 12:04:25;;;;;;;11.23;4.70;;;;;;;;;;5049615;28;20068;-71
2021/12/31 12:06:59;;;;;;;7.70;4.10;;;;;;;;;;5049536;28;20045;-75
2021/12/31 12:09:40;;;;;;;8.75;4.30;;;;;;;;;;5040704;28;20052;-70
2021/12/31 12:12:06;;;;;;;12.57;4.27;;;;;;;;;;5030844;28;20511;-70
2021/12/31 12:14:42;;;;;;;7.07;4.10;;;;;;;;;;5031448;28;20425;-69
2021/12/31 12:17:09;;;;;;;12.00;4.80;;;;;;;;;;5031980;28;20462;-69
2021/12/31 12:19:47;;;;;;;11.70;4.87;;;;;;;;;;5047165;28;20492;-69
2021/12/31 12:22:28;;;;;;;12.87;6.43;;;;;;;;;;5021537;28;20075;-69
2021/12/31 12:24:55;;;;;;;14.60;6.60;;;;;;;;;;5031018;28;20058;-70
2021/12/31 12:27:22;;;;;;;20.13;8.17;;;;;;;;;;5031621;28;20045;-70
2021/12/31 12:29:49;;;;;;;27.73;10.83;;;;;;;;;;5029893;28;20056;-69
2021/12/31 12:32:17;;;;;;;21.73;11.20;;;;;;;;;;5031064;28;20075;-69
2021/12/31 12:34:43;;;;;;;18.70;10.97;;;;;;;;;;5031058;28;20444;-69
2021/12/31 12:37:09;;;;;;;20.10;11.47;;;;;;;;;;5033576;28;20049;-69
2021/12/31 12:39:35;;;;;;;26.43;12.80;;;;;;;;;;5032542;28;20045;-69
2021/12/31 12:42:01;;;;;;;31.07;14.40;;;;;;;;;;5016167;28;20053;-68
2021/12/31 12:44:28;;;;;;;26.13;12.43;;;;;;;;;;5012006;28;20059;-68
2021/12/31 12:46:55;;;;;;;35.83;15.33;;;;;;;;;;5010453;28;20050;-68
2021/12/31 12:49:23;;;;;;;25.70;12.80;;;;;;;;;;5011160;28;20045;-68
2021/12/31 12:51:49;;;;;;;29.17;13.83;;;;;;;;;;5009529;28;20049;-68
2021/12/31 12:54:21;;;;;;;38.07;14.83;;;;;;;;;;5009912;28;20081;-69
2021/12/31 12:56:47;;;;;;;26.23;13.53;;;;;;;;;;5010137;28;20085;-68
2021/12/31 12:59:20;;;;;;;34.83;16.07;;;;;;;;;;5009837;28;20046;-69
2021/12/31 13:01:46;;;;;;;27.17;14.82;;;;;;;;;;5008805;28;20050;-68
2021/12/31 13:04:13;;;;;;;27.13;15.30;;;;;;;;;;5009697;28;20046;-68
2021/12/31 13:06:41;;;;;;;25.87;14.37;;;;;;;;;;5011138;28;20124;-68
2021/12/31 13:09:07;;;;;;;38.37;18.17;;;;;;;;;;5010388;28;20141;-68
2021/12/31 13:11:34;;;;;;;31.83;17.87;;;;;;;;;;5009859;28;20570;-68
2021/12/31 13:14:01;;;;;;;38.73;15.60;;;;;;;;;;5010837;28;20515;-68
2021/12/31 13:16:27;;;;;;;36.93;16.10;;;;;;;;;;5009399;28;20085;-69
2021/12/31 13:18:57;;;;;;;26.43;14.63;;;;;;;;;;5009376;28;20053;-68
2021/12/31 13:21:24;;;;;;;31.53;15.13;;;;;;;;;;5009081;28;20050;-68
2021/12/31 13:23:54;;;;;;;22.03;12.13;;;;;;;;;;5009430;28;20518;-68
2021/12/31 13:26:23;;;;;;;24.73;13.13;;;;;;;;;;5010739;28;20049;-68
2021/12/31 13:28:49;;;;;;;28.70;14.03;;;;;;;;;;5010865;28;20085;-69
2021/12/31 13:31:17;;;;;;;28.97;12.80;;;;;;;;;;5010535;28;20141;-68
2021/12/31 13:33:47;;;;;;;18.63;11.40;;;;;;;;;;5008814;28;20052;-68
2021/12/31 13:36:13;;;;;;;28.53;13.20;;;;;;;;;;5009227;28;20104;-68
2021/12/31 13:38:58;;;;;;;27.73;11.70;;;;;;;;;;5010468;28;20054;-69
2021/12/31 13:41:24;;;;;;;26.37;12.97;;;;;;;;;;5008836;28;20164;-68
2021/12/31 13:43:57;;;;;;;37.37;13.17;;;;;;;;;;5008632;28;20081;-68
2021/12/31 13:46:41;;;;;;;20.48;9.68;;;;;;;;;;5010297;28;20438;-68
2021/12/31 13:49:09;;;;;;;26.48;11.48;;;;;;;;;;5009943;28;20050;-68
2021/12/31 13:51:39;;;;;;;26.93;10.97;;;;;;;;;;5009785;28;20060;-68
2021/12/31 13:54:07;;;;;;;24.00;12.67;;;;;;;;;;5010081;28;20042;-68
2021/12/31 13:56:32;;;;;;;36.70;15.33;;;;;;;;;;5010147;28;20490;-68
2021/12/31 13:58:59;;;;;;;23.17;13.33;;;;;;;;;;5010220;28;20092;-68
2021/12/31 14:01:24;;;;;;;30.20;13.93;;;;;;;;;;5009894;28;20140;-68
2021/12/31 14:04:09;;;;;;;33.77;16.30;;;;;;;;;;5009409;28;20141;-68
2021/12/31 14:06:35;;;;;;;50.60;17.97;;;;;;;;;;5009906;28;20052;-68
2021/12/31 14:09:03;;;;;;;42.50;18.27;;;;;;;;;;5009008;28;20082;-67
2021/12/31 14:11:29;;;;;;;40.33;20.10;;;;;;;;;;5008375;28;20145;-68
2021/12/31 14:13:55;;;;;;;30.93;14.87;;;;;;;;;;5009676;28;20054;-68
2021/12/31 14:16:21;;;;;;;22.20;12.40;;;;;;;;;;5009257;28;20089;-68
2021/12/31 14:18:47;;;;;;;23.80;11.30;;;;;;;;;;5008207;28;20516;-68
2021/12/31 14:21:13;;;;;;;25.70;10.43;;;;;;;;;;5009631;28;20129;-68
2021/12/31 14:23:40;;;;;;;27.57;11.10;;;;;;;;;;5009463;28;20523;-68
2021/12/31 14:26:06;;;;;;;21.60;9.20;;;;;;;;;;5024721;28;20060;-68
2021/12/31 14:28:36;;;;;;;23.40;8.07;;;;;;;;;;5009668;28;20046;-68
2021/12/31 14:31:03;;;;;;;20.53;7.50;;;;;;;;;;5007895;28;20121;-68
2021/12/31 14:33:29;;;;;;;17.73;7.47;;;;;;;;;;5009712;28;20512;-67
2021/12/31 14:35:56;;;;;;;19.60;8.03;;;;;;;;;;5008312;28;20164;-68
2021/12/31 14:38:23;;;;;;;22.40;9.00;;;;;;;;;;5009250;28;20054;-68